createdAt,value
2018-07-21T00:00:54.858Z,76.11
2018-07-21T00:03:25.133Z,76.17
2018-07-21T00:05:54.994Z,76.09
2018-07-21T00:08:25.050Z,76.31
2018-07-21T00:10:55.546Z,76.47
2018-07-21T00:13:25.578Z,77.02
2018-07-21T00:15:55.367Z,76.31
2018-07-21T00:18:25.331Z,76.58
2018-07-21T00:20:55.626Z,76.68
2018-07-21T00:23:25.570Z,76.92
2018-07-21T00:25:55.447Z,76.33
2018-07-21T00:28:25.494Z,76.66
2018-07-21T00:31:08.688Z,76.72
2018-07-21T00:33:38.493Z,77.27
2018-07-21T00:36:08.593Z,77.07
2018-07-21T00:38:38.466Z,76.95
2018-07-21T00:41:09.132Z,77.13
2018-07-21T00:43:50.462Z,77.35
2018-07-21T00:46:20.659Z,76.82
2018-07-21T00:48:50.751Z,76.28
2018-07-21T00:51:20.524Z,76.59
2018-07-21T00:54:03.150Z,77.26
2018-07-21T00:56:32.904Z,77.01
2018-07-21T00:59:02.771Z,77.55
2018-07-21T01:01:32.618Z,77.73
2018-07-21T01:04:02.778Z,77.42
2018-07-21T01:06:32.673Z,77.74
2018-07-21T01:09:02.532Z,77.86
2018-07-21T01:11:32.579Z,77.62
2018-07-21T01:14:02.728Z,78.22
2018-07-21T01:16:32.643Z,78.04
2018-07-21T01:19:02.502Z,78.21
2018-07-21T01:21:32.370Z,78.05
2018-07-21T01:24:02.234Z,78.56
2018-07-21T01:26:33.276Z,78.05
2018-07-21T01:29:05.697Z,78.73
2018-07-21T01:31:35.981Z,78.64
2018-07-21T01:34:05.807Z,78.18
2018-07-21T01:36:37.202Z,78.28
2018-07-21T01:39:10.011Z,78.52
2018-07-21T01:41:39.927Z,78.45
2018-07-21T01:44:10.273Z,78.35
2018-07-21T01:46:40.016Z,78.28
2018-07-21T01:49:09.825Z,78.18
2018-07-21T01:51:40.101Z,77.74
2018-07-21T01:54:09.963Z,78.03
2018-07-21T01:56:39.734Z,77.75
2018-07-21T01:59:09.695Z,78.11
2018-07-21T02:01:41.203Z,77.63
2018-07-21T02:04:11.051Z,77.66
2018-07-21T02:06:41.730Z,77.31
2018-07-21T02:09:13.151Z,77.25
2018-07-21T02:11:43.010Z,77.30
2018-07-21T02:14:12.854Z,77.45
2018-07-21T02:16:42.922Z,77.51
2018-07-21T02:19:12.696Z,76.81
2018-07-21T02:21:42.935Z,76.96
2018-07-21T02:24:15.492Z,76.85
2018-07-21T02:27:11.580Z,77.08
2018-07-21T02:29:42.102Z,77.41
2018-07-21T02:32:34.151Z,77.14
2018-07-21T02:35:05.268Z,77.39
2018-07-21T02:37:53.988Z,77.41
2018-07-21T02:40:23.858Z,76.58
2018-07-21T02:42:54.213Z,76.46
2018-07-21T02:45:24.098Z,76.86
2018-07-21T02:47:55.796Z,76.52
2018-07-21T02:50:25.830Z,76.43
2018-07-21T02:52:55.726Z,76.59
2018-07-21T02:55:25.891Z,76.56
2018-07-21T02:57:55.773Z,76.72
2018-07-21T03:00:25.826Z,76.95
2018-07-21T03:02:56.050Z,76.11
2018-07-21T03:05:26.265Z,76.69
2018-07-21T03:07:56.142Z,76.38
2018-07-21T03:10:26.867Z,76.78
2018-07-21T03:12:56.842Z,76.42
2018-07-21T03:15:26.624Z,75.65
2018-07-21T03:17:57.902Z,75.55
2018-07-21T03:20:27.706Z,75.85
2018-07-21T03:22:57.521Z,76.20
2018-07-21T03:27:18.542Z,75.64
2018-07-21T03:29:48.653Z,76.08
2018-07-21T03:32:18.725Z,75.73
2018-07-21T03:34:49.110Z,76.09
2018-07-21T03:37:19.123Z,75.70
2018-07-21T03:39:49.271Z,75.41
2018-07-21T03:42:35.318Z,75.96
2018-07-21T03:45:05.338Z,75.73
2018-07-21T03:47:35.439Z,75.83
2018-07-21T03:50:06.190Z,75.80
2018-07-21T03:52:36.301Z,74.79
2018-07-21T03:55:06.345Z,74.96
2018-07-21T03:57:36.348Z,74.30
2018-07-21T04:00:06.569Z,75.05
2018-07-21T04:02:36.433Z,75.13
2018-07-21T04:05:09.679Z,75.70
2018-07-21T04:07:39.543Z,76.57
2018-07-21T04:10:09.490Z,77.54
2018-07-21T04:12:39.472Z,77.74
2018-07-21T04:15:10.906Z,79.12
2018-07-21T04:17:40.936Z,79.72
2018-07-21T04:20:10.992Z,80.73
2018-07-21T04:22:40.857Z,80.82
2018-07-21T04:25:10.734Z,81.44
2018-07-21T04:27:40.611Z,82.67
2018-07-21T04:30:10.929Z,82.44
2018-07-21T04:32:41.768Z,82.87
2018-07-21T04:35:11.607Z,83.03
2018-07-21T04:37:41.596Z,84.13
2018-07-21T04:40:11.432Z,84.31
2018-07-21T04:42:41.329Z,83.61
2018-07-21T04:45:11.672Z,84.73
2018-07-21T04:47:41.587Z,83.99
2018-07-21T04:50:11.659Z,83.91
2018-07-21T04:52:42.098Z,83.96
2018-07-21T04:55:12.260Z,84.47
2018-07-21T04:57:42.265Z,84.74
2018-07-21T05:00:13.275Z,84.75
2018-07-21T05:02:44.156Z,85.11
2018-07-21T05:05:14.333Z,85.17
2018-07-21T05:07:51.513Z,84.98
2018-07-21T05:10:21.543Z,85.29
2018-07-21T05:12:52.121Z,85.17
2018-07-21T05:15:22.036Z,85.25
2018-07-21T05:18:09.230Z,85.76
2018-07-21T05:20:39.313Z,85.28
2018-07-21T05:23:09.742Z,86.07
2018-07-21T05:31:51.795Z,85.12
2018-07-21T05:34:21.642Z,83.77
2018-07-21T05:36:51.494Z,83.90
2018-07-21T05:39:21.383Z,83.39
2018-07-21T05:41:51.920Z,82.94
2018-07-21T05:44:21.822Z,83.00
2018-07-21T05:46:51.681Z,82.79
2018-07-21T05:49:21.658Z,82.63
2018-07-21T05:51:51.510Z,81.83
2018-07-21T05:54:21.306Z,82.14
2018-07-21T05:56:53.802Z,82.32
2018-07-21T05:59:23.731Z,81.36
2018-07-21T06:01:53.610Z,81.74
2018-07-21T06:04:27.305Z,82.12
2018-07-21T06:06:57.271Z,82.68
2018-07-21T06:09:28.543Z,82.06
2018-07-21T06:11:58.453Z,82.05
2018-07-21T06:14:28.484Z,82.34
2018-07-21T06:16:58.488Z,82.66
2018-07-21T06:19:28.760Z,83.58
2018-07-21T06:21:58.722Z,84.05
2018-07-21T06:24:28.912Z,84.89
2018-07-21T06:26:59.277Z,85.16
2018-07-21T06:29:29.207Z,85.64
2018-07-21T06:31:59.155Z,85.40
2018-07-21T06:34:29.172Z,85.54
2018-07-21T06:37:18.014Z,86.53
2018-07-21T06:39:48.514Z,86.80
2018-07-21T06:42:18.527Z,87.04
2018-07-21T06:44:48.429Z,86.92
2018-07-21T06:47:18.346Z,86.62
2018-07-21T06:49:48.923Z,86.59
2018-07-21T06:52:19.251Z,86.52
2018-07-21T06:54:49.677Z,85.91
2018-07-21T06:57:19.568Z,85.97
2018-07-21T06:59:50.022Z,85.76
2018-07-21T07:02:20.161Z,85.28
2018-07-21T07:04:50.340Z,84.54
2018-07-21T07:07:21.612Z,84.81
2018-07-21T07:09:51.638Z,85.51
2018-07-21T07:12:23.785Z,85.26
2018-07-21T07:14:54.022Z,84.24
2018-07-21T07:17:25.770Z,83.65
2018-07-21T07:20:13.027Z,83.19
2018-07-21T07:22:44.662Z,82.37
2018-07-21T07:25:15.788Z,81.51
2018-07-21T07:27:46.119Z,81.82
2018-07-21T07:30:26.301Z,81.97
2018-07-21T07:32:56.334Z,82.56
2018-07-21T07:35:27.967Z,82.08
2018-07-21T07:37:58.135Z,82.48
2018-07-21T07:40:27.971Z,82.98
2018-07-21T07:42:57.900Z,82.97
2018-07-21T07:45:31.339Z,82.02
2018-07-21T07:48:01.465Z,80.77
2018-07-21T07:50:31.264Z,80.47
2018-07-21T07:53:01.211Z,81.30
2018-07-21T07:55:32.187Z,81.68
2018-07-21T07:58:03.521Z,81.99
2018-07-21T08:00:33.623Z,82.39
2018-07-21T08:03:03.758Z,81.71
2018-07-21T08:05:34.088Z,81.94
2018-07-21T08:08:03.947Z,81.96
2018-07-21T08:10:33.908Z,81.14
2018-07-21T08:13:09.871Z,81.41
2018-07-21T08:15:39.684Z,81.98
2018-07-21T08:18:10.886Z,82.21
2018-07-21T08:20:40.741Z,80.67
2018-07-21T08:23:11.045Z,80.92
2018-07-21T08:25:40.932Z,79.21
2018-07-21T08:28:11.529Z,79.18
2018-07-21T08:30:41.422Z,79.39
2018-07-21T08:33:11.689Z,79.94
2018-07-21T08:35:41.704Z,81.11
2018-07-21T08:38:11.997Z,81.67
2018-07-21T08:40:42.809Z,81.46
2018-07-21T08:43:12.902Z,82.40
2018-07-21T08:45:43.461Z,81.83
2018-07-21T08:48:13.282Z,81.72
2018-07-21T08:50:43.456Z,82.86
2018-07-21T08:53:13.978Z,82.04
2018-07-21T08:55:46.264Z,83.21
2018-07-21T08:58:16.138Z,84.54
2018-07-21T09:00:46.092Z,84.48
2018-07-21T09:03:16.029Z,86.21
2018-07-21T09:05:46.017Z,84.74
2018-07-21T09:08:16.011Z,85.01
2018-07-21T09:10:46.266Z,87.70
2018-07-21T09:13:16.296Z,87.94
2018-07-21T09:15:46.275Z,89.18
2018-07-21T09:18:16.306Z,88.56
2018-07-21T09:20:46.797Z,89.70
2018-07-21T09:23:16.957Z,90.57
2018-07-21T09:25:47.854Z,91.52
2018-07-21T09:28:17.780Z,91.20
2018-07-21T09:30:47.861Z,92.21
2018-07-21T09:33:17.834Z,91.83
2018-07-21T09:35:48.342Z,92.31
2018-07-21T09:38:18.258Z,92.23
2018-07-21T09:40:49.626Z,92.71
2018-07-21T09:43:19.498Z,92.98
2018-07-21T09:45:49.392Z,92.96
2018-07-21T09:48:19.431Z,92.91
2018-07-21T09:50:49.866Z,93.43
2018-07-21T09:53:20.088Z,93.84
2018-07-21T09:55:49.997Z,93.87
2018-07-21T09:58:19.890Z,94.08
2018-07-21T10:00:55.002Z,94.63
2018-07-21T10:03:25.162Z,94.62
2018-07-21T10:05:56.054Z,94.51
2018-07-21T10:08:26.022Z,94.79
2018-07-21T10:10:55.978Z,95.09
2018-07-21T10:13:27.273Z,95.41
2018-07-21T10:15:57.730Z,95.11
2018-07-21T10:18:27.760Z,95.37
2018-07-21T10:20:57.681Z,95.51
2018-07-21T10:23:28.574Z,95.66
2018-07-21T10:26:28.120Z,95.42
2018-07-21T10:29:03.192Z,94.77
2018-07-21T10:31:33.697Z,95.01
2018-07-21T10:34:03.819Z,94.83
2018-07-21T10:36:33.889Z,95.45
2018-07-21T10:39:04.661Z,95.76
2018-07-21T10:41:34.802Z,95.24
2018-07-21T10:44:09.626Z,94.91
2018-07-21T10:46:39.710Z,94.77
2018-07-21T10:49:11.069Z,95.14
2018-07-21T10:51:41.112Z,94.76
2018-07-21T10:54:10.914Z,94.11
2018-07-21T10:56:40.838Z,92.97
2018-07-21T10:59:12.383Z,93.27
2018-07-21T11:01:42.295Z,92.72
2018-07-21T11:04:12.831Z,92.93
2018-07-21T11:06:42.731Z,92.51
2018-07-21T11:09:13.095Z,92.78
2018-07-21T11:11:42.976Z,93.15
2018-07-21T11:14:12.970Z,93.35
2018-07-21T11:16:43.699Z,93.87
2018-07-21T11:19:21.926Z,93.77
2018-07-21T11:21:52.081Z,93.76
2018-07-21T11:24:22.555Z,94.18
2018-07-21T11:26:52.547Z,93.97
2018-07-21T11:29:22.416Z,94.30
2018-07-21T11:31:52.642Z,92.83
2018-07-21T11:34:23.234Z,92.18
2018-07-21T11:36:53.147Z,93.21
2018-07-21T11:39:29.655Z,93.81
2018-07-21T11:42:00.667Z,93.63
2018-07-21T11:44:30.672Z,93.73
2018-07-21T11:47:02.346Z,94.63
2018-07-21T11:49:33.727Z,94.67
2018-07-21T11:52:06.936Z,94.93
2018-07-21T11:54:37.303Z,94.70
2018-07-21T11:57:08.810Z,95.24
2018-07-21T11:59:38.878Z,95.25
2018-07-21T12:02:09.439Z,94.89
2018-07-21T12:04:39.840Z,94.77
2018-07-21T12:07:09.902Z,94.72
2018-07-21T12:09:39.999Z,94.29
2018-07-21T12:12:10.001Z,93.64
2018-07-21T12:14:39.983Z,93.59
2018-07-21T12:17:10.634Z,94.26
2018-07-21T12:19:46.609Z,93.41
2018-07-21T12:22:16.857Z,92.82
2018-07-21T12:24:50.095Z,93.27
2018-07-21T12:27:20.910Z,92.75
2018-07-21T12:29:52.297Z,92.86
2018-07-21T12:32:23.053Z,92.85
2018-07-21T12:34:54.409Z,92.92
2018-07-21T12:37:24.860Z,92.45
2018-07-21T12:39:55.252Z,91.98
2018-07-21T12:42:25.662Z,91.68
2018-07-21T12:44:55.643Z,90.95
2018-07-21T12:47:25.613Z,90.60
2018-07-21T12:49:59.502Z,90.83
2018-07-21T12:52:29.655Z,89.82
2018-07-21T12:54:59.560Z,89.56
2018-07-21T12:57:30.251Z,88.28
2018-07-21T13:00:01.745Z,88.62
2018-07-21T13:02:31.983Z,87.44
2018-07-21T13:05:02.465Z,88.39
2018-07-21T13:07:32.899Z,88.67
2018-07-21T13:10:02.827Z,85.91
2018-07-21T13:12:33.655Z,86.61
2018-07-21T13:15:03.786Z,85.05
2018-07-21T13:17:34.086Z,81.54
2018-07-21T13:20:04.128Z,75.51
2018-07-21T13:22:34.644Z,75.22
2018-07-21T13:25:12.950Z,76.82
2018-07-21T13:27:43.020Z,74.94
2018-07-21T13:30:13.347Z,68.23
2018-07-21T13:32:43.225Z,62.90
2018-07-21T13:35:15.790Z,59.85
2018-07-21T13:37:58.578Z,58.40
2018-07-21T13:40:28.737Z,58.19
2018-07-21T13:42:58.645Z,57.96
2018-07-21T13:45:28.619Z,60.64
2018-07-21T13:47:58.582Z,63.56
2018-07-21T13:50:30.270Z,65.94
2018-07-21T13:53:00.512Z,67.44
2018-07-21T13:55:30.818Z,67.66
2018-07-21T13:58:01.164Z,69.80
2018-07-21T14:00:48.532Z,71.08
2018-07-21T14:06:03.112Z,71.07
2018-07-21T14:08:33.236Z,72.58
2018-07-21T14:11:12.750Z,71.28
2018-07-21T14:13:42.741Z,69.87
2018-07-21T14:16:12.758Z,70.99
2018-07-21T14:18:51.283Z,70.82
2018-07-21T14:21:24.872Z,69.17
2018-07-21T14:23:55.346Z,70.69
2018-07-21T14:26:25.379Z,68.17
2018-07-21T14:28:55.354Z,71.45
2018-07-21T14:31:25.707Z,69.81
2018-07-21T14:33:55.537Z,73.11
2018-07-21T14:36:27.896Z,67.97
2018-07-21T14:38:57.689Z,68.27
2018-07-21T14:41:29.575Z,67.75
2018-07-21T14:43:59.640Z,66.51
2018-07-21T14:46:30.300Z,65.20
2018-07-21T14:49:00.616Z,65.62
2018-07-21T14:51:30.768Z,67.13
2018-07-21T14:54:00.779Z,63.00
2018-07-21T14:56:32.693Z,64.56
2018-07-21T14:59:02.641Z,62.95
2018-07-21T15:01:32.633Z,64.99
2018-07-21T15:04:02.822Z,65.87
2018-07-21T15:06:34.331Z,65.38
2018-07-21T15:09:05.058Z,67.76
2018-07-21T15:11:35.354Z,66.61
2018-07-21T15:14:06.989Z,64.96
2018-07-21T15:16:37.274Z,66.42
2018-07-21T15:19:07.428Z,64.62
2018-07-21T15:21:39.852Z,68.16
2018-07-21T15:24:09.803Z,66.47
2018-07-21T15:26:39.967Z,65.62
2018-07-21T15:29:09.982Z,67.79
2018-07-21T15:31:40.948Z,69.07
2018-07-21T15:34:11.120Z,70.33
2018-07-21T15:36:41.715Z,71.34
2018-07-21T15:39:11.649Z,70.57
2018-07-21T15:41:41.615Z,71.45
2018-07-21T15:44:12.144Z,70.89
2018-07-21T15:46:42.453Z,72.20
2018-07-21T15:55:08.342Z,72.88
2018-07-21T15:57:38.228Z,72.53
2018-07-21T16:00:08.376Z,71.04
2018-07-21T16:02:38.375Z,71.85
2018-07-21T16:05:10.803Z,71.11
2018-07-21T16:07:40.804Z,72.49
2018-07-21T16:10:10.941Z,70.64
2018-07-21T16:12:40.896Z,71.47
2018-07-21T16:15:11.289Z,71.90
2018-07-21T16:17:41.240Z,70.30
2018-07-21T16:20:12.069Z,70.49
2018-07-21T16:22:42.028Z,69.77
2018-07-21T16:25:12.820Z,70.12
2018-07-21T16:27:44.878Z,69.12
2018-07-21T16:30:15.940Z,69.46
2018-07-21T16:32:45.988Z,70.90
2018-07-21T16:35:18.271Z,72.60
2018-07-21T16:37:51.472Z,73.13
2018-07-21T16:40:21.588Z,73.55
2018-07-21T16:43:01.240Z,73.89
2018-07-21T16:45:31.450Z,73.48
2018-07-21T16:48:04.394Z,73.95
2018-07-21T16:50:34.347Z,74.01
2018-07-21T16:53:04.673Z,74.14
2018-07-21T16:55:34.643Z,74.08
2018-07-21T16:58:06.433Z,74.11
2018-07-21T17:00:36.853Z,74.07
2018-07-21T17:03:07.298Z,74.31
2018-07-21T17:05:43.532Z,74.47
2018-07-21T17:08:13.581Z,74.82
2018-07-21T17:10:44.104Z,73.98
2018-07-21T17:13:16.956Z,74.41
2018-07-21T17:15:46.979Z,73.99
2018-07-21T17:18:17.640Z,74.41
2018-07-21T17:20:52.581Z,75.36
2018-07-21T17:26:07.878Z,75.42
2018-07-21T17:28:40.263Z,75.62
2018-07-21T17:31:10.362Z,75.12
2018-07-21T17:33:40.369Z,75.38
2018-07-21T17:36:12.452Z,74.73
2018-07-21T17:38:42.282Z,75.57
2018-07-21T17:41:12.248Z,75.64
2018-07-21T17:43:45.873Z,74.97
2018-07-21T17:46:18.905Z,74.62
2018-07-21T17:48:50.738Z,75.06
2018-07-21T17:51:21.501Z,75.75
2018-07-21T17:53:51.425Z,75.51
2018-07-21T17:56:21.904Z,76.14
2018-07-21T17:58:53.875Z,76.05
2018-07-21T18:01:25.447Z,76.76
2018-07-21T18:03:56.244Z,77.22
2018-07-21T18:06:26.333Z,76.96
2018-07-21T18:08:56.506Z,77.58
2018-07-21T18:11:36.286Z,77.26
2018-07-21T18:14:22.005Z,77.68
2018-07-21T18:16:53.725Z,78.35
2018-07-21T18:19:42.865Z,77.45
2018-07-21T18:22:13.086Z,77.96
2018-07-21T18:24:44.535Z,78.91
2018-07-21T18:27:18.891Z,78.44
2018-07-21T18:29:48.965Z,78.90
2018-07-21T18:32:21.125Z,78.54
2018-07-21T18:34:55.441Z,78.90
2018-07-21T18:37:26.980Z,79.07
2018-07-21T18:39:59.297Z,79.25
2018-07-21T18:42:38.153Z,80.02
2018-07-21T18:45:17.493Z,80.35
2018-07-21T18:47:49.780Z,80.57
2018-07-21T18:50:32.569Z,81.61
2018-07-21T18:53:06.121Z,80.98
2018-07-21T18:55:37.671Z,81.16
2018-07-21T18:58:08.993Z,81.24
2018-07-21T19:00:38.996Z,80.93
2018-07-21T19:03:13.203Z,80.97
2018-07-21T19:05:44.431Z,81.22
2018-07-21T19:09:17.331Z,80.71
2018-07-21T19:11:58.574Z,80.76
2018-07-21T19:14:30.131Z,80.89
2018-07-21T19:17:01.864Z,81.04
2018-07-21T19:19:37.026Z,81.19
2018-07-21T19:22:07.257Z,82.73
2018-07-21T19:24:38.127Z,83.55
2018-07-21T19:27:14.162Z,83.78
2018-07-21T19:29:47.413Z,83.73
2018-07-21T19:32:55.140Z,84.04
2018-07-21T19:35:30.162Z,85.02
2018-07-21T19:38:03.156Z,85.60
2018-07-21T19:40:34.105Z,85.69
2018-07-21T19:43:04.637Z,85.24
2018-07-21T19:45:35.019Z,84.93
2018-07-21T19:48:06.453Z,84.51
2018-07-21T19:50:36.665Z,84.64
2018-07-21T19:53:06.717Z,84.92
2018-07-21T19:55:41.408Z,84.84
2018-07-21T19:58:12.206Z,85.25
2018-07-21T20:03:50.253Z,85.88
2018-07-21T20:06:29.337Z,85.64
2018-07-21T20:09:00.999Z,85.97
2018-07-21T20:11:47.504Z,86.39
2018-07-21T20:14:33.285Z,86.30
2018-07-21T20:22:29.055Z,86.44
2018-07-21T20:25:06.336Z,85.98
2018-07-21T20:27:37.226Z,86.43
2018-07-21T20:30:07.605Z,86.75
2018-07-21T20:32:38.863Z,87.25
2018-07-21T20:35:08.953Z,87.64
2018-07-21T20:37:45.852Z,87.50
2018-07-21T20:40:16.282Z,87.76
2018-07-21T20:46:03.047Z,87.64
2018-07-21T20:48:33.725Z,87.86
2018-07-21T20:51:03.851Z,88.18
2018-07-21T20:53:34.337Z,87.83
2018-07-21T20:56:04.369Z,88.11
2018-07-21T20:58:34.735Z,88.21
2018-07-21T21:04:27.575Z,88.12
2018-07-21T21:06:58.087Z,87.84
2018-07-21T21:09:31.233Z,87.78
2018-07-21T21:12:01.777Z,88.54
2018-07-21T21:14:32.762Z,88.41
2018-07-21T21:17:03.138Z,88.74
2018-07-21T21:19:39.590Z,88.65
2018-07-21T21:22:16.520Z,88.78
2018-07-21T21:24:49.657Z,88.94
2018-07-21T21:27:52.366Z,89.55
2018-07-21T21:30:42.527Z,89.92
2018-07-21T21:36:20.174Z,90.72
2018-07-21T21:38:50.411Z,90.43
2018-07-21T21:41:22.864Z,90.45
2018-07-21T21:43:52.756Z,90.78
2018-07-21T21:46:22.792Z,91.43
2018-07-21T21:48:52.839Z,91.69
2018-07-21T21:51:24.352Z,91.34
2018-07-21T21:53:54.275Z,91.45
2018-07-21T21:56:24.197Z,90.94
2018-07-21T21:58:54.726Z,91.02
2018-07-21T22:01:24.865Z,91.00
2018-07-21T22:03:54.841Z,91.17
2018-07-21T22:06:25.294Z,91.35
2018-07-21T22:08:55.228Z,91.74
2018-07-21T22:15:13.631Z,91.64
2018-07-21T22:17:44.476Z,92.08
2018-07-21T22:20:14.914Z,91.72
2018-07-21T22:22:45.443Z,91.93
2018-07-21T22:25:37.907Z,92.20
2018-07-21T22:28:08.341Z,92.21
2018-07-21T22:30:38.301Z,92.72
2018-07-21T22:33:09.847Z,92.93
2018-07-21T22:35:39.766Z,92.93
2018-07-21T22:38:09.676Z,92.58
2018-07-21T22:40:39.858Z,92.96
2018-07-21T22:43:09.750Z,93.11
2018-07-21T22:45:39.694Z,92.75
2018-07-21T22:48:09.627Z,92.85
2018-07-21T22:50:39.823Z,93.14
2018-07-21T22:53:09.740Z,92.81
2018-07-21T22:55:39.651Z,92.73
2018-07-21T22:58:10.863Z,92.56
2018-07-21T23:00:42.969Z,92.67
2018-07-21T23:03:13.026Z,92.75
2018-07-21T23:05:43.259Z,92.58
2018-07-21T23:08:13.604Z,92.59
2018-07-21T23:10:43.909Z,92.95
2018-07-21T23:13:14.642Z,93.15
2018-07-21T23:15:45.733Z,93.17
2018-07-21T23:18:18.460Z,92.85
2018-07-21T23:20:48.593Z,92.82
2018-07-21T23:23:21.059Z,92.84
2018-07-21T23:25:51.628Z,93.31
2018-07-21T23:29:37.030Z,92.68
2018-07-21T23:32:08.023Z,93.25
2018-07-21T23:34:38.745Z,92.75
2018-07-21T23:37:09.975Z,93.23
2018-07-21T23:39:40.103Z,92.87
2018-07-21T23:42:11.005Z,93.28
2018-07-21T23:44:41.264Z,93.14
2018-07-21T23:47:19.264Z,93.14
2018-07-21T23:49:54.997Z,93.27
2018-07-21T23:53:54.925Z,92.62
2018-07-21T23:56:25.850Z,92.81
2018-07-21T23:58:56.100Z,92.97
